Time;durP1;ratioP1;P1;durP2;ratioP2;P2;SDS_P1;SDS_P2;PMS_P1;PMS_P2;Temp;Humidity;BMP_temperature;BMP_pressure;BME280_temperature;BME280_humidity;BME280_pressure;Samples;Min_cycle;Max_cycle;Signal;HPM_P1;HPM_P2
2023/05/30 00:02:29;;;;;;;14.65;8.68;;;23.20;52.80;;;;;;6153473;28;80549;-56
2023/05/30 00:05:30;;;;;;;13.35;7.93;;;23.20;52.80;;;;;;6152190;28;80792;-56
2023/05/30 00:08:30;;;;;;;15.77;9.15;;;23.20;52.80;;;;;;6153050;28;80665;-59
2023/05/30 00:11:31;;;;;;;13.57;8.98;;;23.20;52.80;;;;;;6152371;28;80626;-56
2023/05/30 00:14:32;;;;;;;13.75;8.70;;;23.20;52.70;;;;;;6153155;28;80441;-58
2023/05/30 00:17:32;;;;;;;18.83;9.88;;;23.20;52.80;;;;;;6151574;28;80654;-57
2023/05/30 00:20:33;;;;;;;19.02;9.65;;;23.20;52.70;;;;;;6149052;28;80561;-57
2023/05/30 00:23:34;;;;;;;13.98;8.50;;;23.20;52.70;;;;;;6151114;28;80601;-59
2023/05/30 00:26:35;;;;;;;13.20;8.05;;;23.20;52.70;;;;;;6148768;28;80452;-57
2023/05/30 00:29:35;;;;;;;16.50;9.57;;;23.20;52.80;;;;;;6149223;28;81690;-63
2023/05/30 00:32:36;;;;;;;15.85;8.88;;;23.20;52.80;;;;;;6144970;28;81515;-62
2023/05/30 00:35:36;;;;;;;16.08;9.40;;;23.20;52.90;;;;;;6166233;28;83918;-62
2023/05/30 00:38:37;;;;;;;13.73;9.05;;;23.20;52.80;;;;;;6147487;28;80518;-62
2023/05/30 00:41:38;;;;;;;16.83;9.38;;;23.20;52.80;;;;;;6149786;28;80305;-63
2023/05/30 00:44:38;;;;;;;14.00;8.80;;;23.20;52.80;;;;;;6148572;28;80681;-60
2023/05/30 00:47:40;;;;;;;20.63;10.98;;;23.20;52.80;;;;;;6149111;28;80537;-60
2023/05/30 00:50:42;;;;;;;14.27;9.23;;;23.20;52.80;;;;;;6143348;28;83076;-59
2023/05/30 00:53:42;;;;;;;16.60;9.38;;;23.20;52.80;;;;;;6147938;28;83130;-60
2023/05/30 00:56:43;;;;;;;17.40;9.43;;;23.20;52.80;;;;;;6149647;28;83544;-59
2023/05/30 00:59:44;;;;;;;16.33;9.20;;;23.10;52.90;;;;;;6150785;28;79981;-60
2023/05/30 01:02:44;;;;;;;16.20;9.63;;;23.20;52.90;;;;;;6152170;28;80681;-60
2023/05/30 01:05:45;;;;;;;16.52;9.95;;;23.20;52.90;;;;;;6150856;28;80605;-60
2023/05/30 01:08:46;;;;;;;18.42;10.98;;;23.20;52.90;;;;;;6151983;28;80928;-60
2023/05/30 01:11:46;;;;;;;16.73;10.45;;;23.20;52.80;;;;;;6146413;28;82918;-59
2023/05/30 01:14:47;;;;;;;16.52;9.95;;;23.20;52.90;;;;;;6164273;28;85044;-60
2023/05/30 01:17:47;;;;;;;18.55;10.15;;;23.10;52.80;;;;;;6151701;28;84669;-57
2023/05/30 01:20:49;;;;;;;16.40;9.77;;;23.20;52.80;;;;;;6132647;28;85139;-60
2023/05/30 01:23:52;;;;;;;18.13;9.95;;;23.20;52.90;;;;;;6151569;28;84761;-60
2023/05/30 01:26:53;;;;;;;18.90;10.15;;;23.10;52.80;;;;;;6149675;28;81466;-60
2023/05/30 01:29:54;;;;;;;16.60;9.50;;;23.10;52.80;;;;;;6149131;28;83789;-60
2023/05/30 01:32:54;;;;;;;14.82;9.60;;;23.10;52.80;;;;;;6151725;28;83938;-60
2023/05/30 01:35:55;;;;;;;17.75;10.50;;;23.20;52.80;;;;;;6150319;28;80447;-62
2023/05/30 01:38:56;;;;;;;16.08;10.18;;;23.20;52.80;;;;;;6147752;28;83878;-60
2023/05/30 01:41:58;;;;;;;14.98;9.75;;;23.20;52.70;;;;;;6141933;28;85633;-61
2023/05/30 01:44:58;;;;;;;19.02;10.35;;;23.20;52.70;;;;;;6146679;28;81600;-57
2023/05/30 01:48:00;;;;;;;17.27;9.93;;;23.20;52.70;;;;;;6145313;28;83345;-57
2023/05/30 01:51:00;;;;;;;17.38;10.05;;;23.20;52.80;;;;;;6169613;28;85835;-59
2023/05/30 01:54:01;;;;;;;15.77;10.20;;;23.20;52.80;;;;;;6151723;28;83603;-56
2023/05/30 01:57:01;;;;;;;17.70;10.93;;;23.20;52.80;;;;;;6163757;28;86268;-56
2023/05/30 02:00:02;;;;;;;17.90;10.32;;;23.20;52.90;;;;;;6151837;28;85580;-62
2023/05/30 02:03:13;;;;;;;14.93;9.88;;;23.20;52.90;;;;;;6151841;28;82951;-61
2023/05/30 02:06:13;;;;;;;15.95;9.02;;;23.20;52.80;;;;;;6171029;28;85454;-60
2023/05/30 02:09:14;;;;;;;15.75;9.35;;;23.10;52.80;;;;;;6154554;28;81507;-62
2023/05/30 02:12:16;;;;;;;15.00;9.63;;;23.10;52.80;;;;;;6171125;28;81950;-62
2023/05/30 02:15:17;;;;;;;19.10;10.13;;;23.10;52.80;;;;;;6158893;28;81837;-62
2023/05/30 02:18:19;;;;;;;19.00;8.63;;;23.10;52.80;;;;;;6165701;28;83204;-62
2023/05/30 02:21:20;;;;;;;13.43;8.70;;;23.10;52.80;;;;;;6154647;28;81848;-66
2023/05/30 02:24:23;;;;;;;13.60;9.02;;;23.10;52.80;;;;;;6156135;28;80955;-66
2023/05/30 02:27:27;;;;;;;13.95;9.32;;;23.10;52.80;;;;;;6155269;28;81823;-63
2023/05/30 02:30:29;;;;;;;15.65;10.23;;;23.10;52.80;;;;;;6156987;28;83767;-65
2023/05/30 02:33:30;;;;;;;13.82;9.07;;;23.10;52.80;;;;;;6152405;28;83074;-66
2023/05/30 02:36:32;;;;;;;16.27;9.75;;;23.10;52.80;;;;;;6155189;28;84020;-66
2023/05/30 02:39:33;;;;;;;13.98;8.57;;;23.10;52.80;;;;;;6153371;28;83318;-69
2023/05/30 02:42:34;;;;;;;14.55;9.63;;;23.10;52.70;;;;;;6155677;28;81720;-69
2023/05/30 02:45:35;;;;;;;15.38;9.00;;;23.10;52.80;;;;;;6154124;28;80693;-68
2023/05/30 02:48:38;;;;;;;13.77;9.07;;;23.10;52.70;;;;;;6150394;28;83635;-67
2023/05/30 02:51:39;;;;;;;13.48;8.55;;;23.10;52.70;;;;;;6155337;28;80437;-67
2023/05/30 02:54:43;;;;;;;15.32;9.00;;;23.10;52.70;;;;;;6152507;28;80811;-70
2023/05/30 02:58:11;;;;;;;13.70;8.95;;;23.10;52.70;;;;;;6154497;28;80731;-64
2023/05/30 03:01:20;;;;;;;17.45;9.65;;;23.10;52.70;;;;;;6149554;28;80358;-63
2023/05/30 03:04:20;;;;;;;15.77;9.55;;;23.10;52.70;;;;;;6155357;28;80291;-62
2023/05/30 03:07:22;;;;;;;15.85;8.73;;;23.00;52.60;;;;;;6152658;28;80885;-62
2023/05/30 03:10:23;;;;;;;15.45;8.60;;;23.10;52.70;;;;;;6166521;28;81395;-60
2023/05/30 03:13:25;;;;;;;13.27;8.60;;;23.10;52.70;;;;;;6159197;28;83341;-63
2023/05/30 03:16:28;;;;;;;14.43;9.18;;;23.10;52.70;;;;;;6160424;28;83191;-73
2023/05/30 03:19:30;;;;;;;19.38;8.93;;;23.10;52.70;;;;;;6152948;28;83380;-76
2023/05/30 03:22:31;;;;;;;17.15;8.90;;;23.10;52.70;;;;;;6153089;28;83531;-72
2023/05/30 03:25:32;;;;;;;14.43;8.40;;;23.10;52.70;;;;;;6150244;28;83044;-75
2023/05/30 03:28:33;;;;;;;15.50;9.13;;;23.00;52.60;;;;;;6151671;28;82316;-70
2023/05/30 03:32:02;;;;;;;13.50;8.43;;;23.10;52.50;;;;;;6150598;28;81700;-62
2023/05/30 03:35:04;;;;;;;12.73;8.32;;;23.10;52.60;;;;;;6151525;28;82179;-62
2023/05/30 03:38:07;;;;;;;11.90;8.27;;;23.10;52.40;;;;;;6154306;28;83361;-59
2023/05/30 03:41:09;;;;;;;14.40;9.27;;;23.10;52.40;;;;;;6165413;28;83435;-64
2023/05/30 03:44:10;;;;;;;14.45;8.80;;;23.10;52.50;;;;;;6158543;28;83197;-63
2023/05/30 03:47:11;;;;;;;16.77;9.10;;;23.10;52.60;;;;;;6153431;28;83005;-62
2023/05/30 03:50:12;;;;;;;14.95;8.27;;;23.10;52.70;;;;;;6150640;28;83848;-62
2023/05/30 03:53:13;;;;;;;15.93;8.32;;;23.00;52.70;;;;;;6155170;28;80831;-63
2023/05/30 03:56:13;;;;;;;13.75;8.45;;;23.10;52.70;;;;;;6154672;28;82846;-66
2023/05/30 03:59:15;;;;;;;14.20;8.18;;;23.10;53.00;;;;;;6151053;28;80718;-65
2023/05/30 04:02:15;;;;;;;17.60;9.32;;;23.20;53.20;;;;;;6167892;28;81908;-60
2023/05/30 04:05:17;;;;;;;18.13;9.40;;;23.10;53.20;;;;;;6151913;28;85510;-63
2023/05/30 04:08:18;;;;;;;19.25;8.10;;;23.10;53.20;;;;;;6152667;28;80433;-59
2023/05/30 04:11:18;;;;;;;16.52;8.15;;;23.10;53.50;;;;;;6151769;28;80814;-61
2023/05/30 04:14:19;;;;;;;19.73;8.32;;;23.10;53.50;;;;;;6148119;28;80876;-64
2023/05/30 04:17:19;;;;;;;16.35;8.73;;;23.20;53.90;;;;;;6155543;28;82109;-64
2023/05/30 04:20:20;;;;;;;18.33;8.55;;;23.20;54.00;;;;;;6134501;28;84952;-65
2023/05/30 04:23:22;;;;;;;16.40;8.80;;;23.20;53.80;;;;;;6150470;28;82277;-65
2023/05/30 04:26:25;;;;;;;15.15;8.65;;;23.20;54.00;;;;;;6162474;28;81730;-64
2023/05/30 04:29:26;;;;;;;15.35;9.15;;;23.20;53.90;;;;;;6147707;28;84168;-58
2023/05/30 04:32:29;;;;;;;17.02;9.07;;;23.20;53.70;;;;;;6147266;28;83275;-60
2023/05/30 04:35:30;;;;;;;18.95;9.35;;;23.20;53.40;;;;;;6149479;28;83544;-57
2023/05/30 04:38:34;;;;;;;19.23;9.35;;;23.20;53.30;;;;;;6166251;28;83032;-57
2023/05/30 04:41:35;;;;;;;20.25;9.52;;;23.20;53.20;;;;;;6163715;28;83092;-56
2023/05/30 04:44:37;;;;;;;21.80;10.55;;;23.20;53.10;;;;;;6152466;28;81808;-57
2023/05/30 04:47:38;;;;;;;18.67;9.63;;;23.20;52.90;;;;;;6145048;28;83823;-57
2023/05/30 04:50:39;;;;;;;20.10;10.48;;;23.20;52.90;;;;;;6147021;28;85900;-57
2023/05/30 04:53:40;;;;;;;19.77;10.32;;;23.10;53.30;;;;;;6136923;28;83476;-59
2023/05/30 04:56:41;;;;;;;18.05;9.95;;;23.10;52.70;;;;;;6145334;28;85781;-56
2023/05/30 04:59:43;;;;;;;17.35;9.75;;;23.20;53.20;;;;;;6149059;28;82881;-57
2023/05/30 05:02:43;;;;;;;17.98;9.98;;;23.10;52.50;;;;;;6149270;28;80578;-57
2023/05/30 05:05:44;;;;;;;18.33;10.00;;;23.10;52.50;;;;;;6144281;28;83312;-67
2023/05/30 05:08:44;;;;;;;17.33;10.60;;;23.10;52.50;;;;;;6146505;28;86461;-67
2023/05/30 05:11:45;;;;;;;20.10;11.90;;;23.10;52.40;;;;;;6146959;28;84928;-66
2023/05/30 05:14:46;;;;;;;19.73;11.38;;;23.10;52.30;;;;;;6146583;28;83634;-68
2023/05/30 05:17:47;;;;;;;17.90;11.15;;;23.10;52.20;;;;;;6147460;28;83460;-68
2023/05/30 05:20:47;;;;;;;19.63;9.88;;;23.10;52.20;;;;;;6149156;28;83919;-68
2023/05/30 05:23:48;;;;;;;26.05;11.18;;;23.10;52.20;;;;;;6151155;28;81851;-68
2023/05/30 05:26:48;;;;;;;17.48;10.57;;;23.10;52.20;;;;;;6147544;28;83201;-68
2023/05/30 05:29:49;;;;;;;18.40;11.00;;;23.10;52.20;;;;;;6133398;28;86095;-68
2023/05/30 05:32:50;;;;;;;19.60;10.82;;;23.10;52.20;;;;;;6134857;28;84496;-68
2023/05/30 05:35:50;;;;;;;20.30;11.13;;;23.10;52.20;;;;;;6134287;28;84343;-68
2023/05/30 05:38:51;;;;;;;19.27;11.93;;;23.10;52.10;;;;;;6136772;28;84090;-69
2023/05/30 05:41:52;;;;;;;27.70;12.90;;;23.10;52.10;;;;;;6141533;28;85392;-63
2023/05/30 05:44:52;;;;;;;18.67;11.98;;;23.10;52.10;;;;;;6145941;28;85031;-63
2023/05/30 05:47:53;;;;;;;18.58;12.15;;;23.10;52.10;;;;;;6145143;28;83220;-63
2023/05/30 05:50:53;;;;;;;19.83;12.27;;;23.10;52.00;;;;;;6147902;28;83488;-64
2023/05/30 05:53:54;;;;;;;22.85;11.98;;;23.10;52.00;;;;;;6147622;28;83682;-63
2023/05/30 05:56:54;;;;;;;19.83;11.40;;;23.10;52.10;;;;;;6147602;28;82991;-63
2023/05/30 05:59:55;;;;;;;22.35;12.57;;;23.10;52.00;;;;;;6147697;28;82966;-68
2023/05/30 06:02:56;;;;;;;23.95;12.27;;;23.10;52.00;;;;;;6148947;28;84174;-68
2023/05/30 06:05:56;;;;;;;25.05;12.15;;;23.10;52.10;;;;;;6148765;28;83225;-68
2023/05/30 06:08:56;;;;;;;21.50;11.65;;;23.10;52.00;;;;;;6147722;28;83047;-66
2023/05/30 06:11:57;;;;;;;21.55;11.45;;;23.20;52.10;;;;;;6148274;28;82740;-69
2023/05/30 06:14:58;;;;;;;18.52;11.07;;;23.20;52.10;;;;;;6148443;28;82997;-70
2023/05/30 06:17:58;;;;;;;22.02;10.82;;;23.10;52.20;;;;;;6147408;28;85601;-68
2023/05/30 06:20:59;;;;;;;19.55;10.88;;;23.20;52.10;;;;;;6147505;28;83130;-68
2023/05/30 06:23:59;;;;;;;20.50;10.45;;;23.20;52.10;;;;;;6147932;28;83228;-68
2023/05/30 06:27:00;;;;;;;19.65;12.30;;;23.20;52.00;;;;;;6147719;28;83364;-67
2023/05/30 06:30:01;;;;;;;24.50;11.20;;;23.20;52.00;;;;;;6139689;28;83553;-67
2023/05/30 06:33:03;;;;;;;18.55;11.18;;;23.20;51.90;;;;;;6147870;28;82762;-68
2023/05/30 06:36:03;;;;;;;18.85;11.75;;;23.20;51.90;;;;;;6151521;28;82929;-69
2023/05/30 06:39:04;;;;;;;20.90;11.02;;;23.20;51.90;;;;;;6152003;28;83846;-63
2023/05/30 06:42:04;;;;;;;17.58;10.32;;;23.20;51.80;;;;;;6151143;28;83206;-69
2023/05/30 06:45:12;;;;;;;21.67;10.55;;;23.20;51.80;;;;;;6161277;28;85861;-69
2023/05/30 06:48:13;;;;;;;20.20;10.73;;;23.30;51.80;;;;;;6151259;28;83050;-70
2023/05/30 06:51:14;;;;;;;17.90;10.35;;;23.30;51.80;;;;;;6151038;28;86086;-71
2023/05/30 06:54:14;;;;;;;15.35;9.65;;;23.30;51.80;;;;;;6151811;28;83199;-69
2023/05/30 06:57:15;;;;;;;23.85;10.45;;;23.30;51.80;;;;;;6153914;28;81708;-63
2023/05/30 07:00:15;;;;;;;20.20;9.70;;;23.30;51.70;;;;;;6151187;28;90227;-65
2023/05/30 07:03:16;;;;;;;18.23;10.10;;;23.30;51.70;;;;;;6153362;28;82839;-63
2023/05/30 07:06:17;;;;;;;18.63;9.63;;;23.30;51.70;;;;;;6151685;28;82718;-64
2023/05/30 07:09:17;;;;;;;16.60;9.55;;;23.40;51.70;;;;;;6154120;28;82947;-64
2023/05/30 07:12:18;;;;;;;15.48;9.15;;;23.40;51.70;;;;;;6152900;28;81709;-63
2023/05/30 07:15:18;;;;;;;18.77;9.85;;;23.40;51.70;;;;;;6153818;28;80393;-70
2023/05/30 07:18:19;;;;;;;18.23;10.07;;;23.40;51.70;;;;;;6153612;28;81039;-70
2023/05/30 07:21:20;;;;;;;22.00;9.98;;;23.40;51.70;;;;;;6150827;28;82704;-71
2023/05/30 07:24:21;;;;;;;19.00;9.15;;;23.40;51.70;;;;;;6150171;28;83155;-70
2023/05/30 07:27:22;;;;;;;20.30;10.02;;;23.50;51.80;;;;;;6154304;28;83073;-70
2023/05/30 07:30:22;;;;;;;20.30;9.68;;;23.50;51.80;;;;;;6146939;28;85873;-69
2023/05/30 07:33:23;;;;;;;19.50;8.95;;;23.50;51.70;;;;;;6153593;28;82878;-57
2023/05/30 07:36:23;;;;;;;19.45;9.70;;;23.50;51.80;;;;;;6152718;28;81524;-57
2023/05/30 07:39:24;;;;;;;16.42;8.77;;;23.50;51.80;;;;;;6152835;28;81748;-58
2023/05/30 07:42:27;;;;;;;20.85;9.50;;;23.50;51.80;;;;;;6152732;28;80735;-57
2023/05/30 07:45:28;;;;;;;16.27;9.80;;;23.50;51.90;;;;;;6152712;28;80823;-56
2023/05/30 07:48:28;;;;;;;15.57;9.38;;;23.50;51.90;;;;;;6151969;28;80630;-57
2023/05/30 07:51:29;;;;;;;15.60;9.27;;;23.60;52.00;;;;;;6153259;28;81368;-56
2023/05/30 07:54:30;;;;;;;16.27;9.45;;;23.50;52.00;;;;;;6152919;28;80580;-58
2023/05/30 07:57:31;;;;;;;18.50;9.35;;;23.50;51.90;;;;;;6152548;28;80935;-56
2023/05/30 08:00:31;;;;;;;16.30;8.60;;;23.60;52.10;;;;;;6152351;28;81263;-56
2023/05/30 08:03:32;;;;;;;17.35;8.50;;;23.60;52.10;;;;;;6153178;28;80611;-58
2023/05/30 08:06:34;;;;;;;16.52;8.68;;;23.60;52.20;;;;;;6152297;28;80522;-56
2023/05/30 08:09:36;;;;;;;16.83;9.23;;;23.60;52.10;;;;;;6153137;28;80255;-63
2023/05/30 08:12:38;;;;;;;16.85;8.43;;;23.60;52.20;;;;;;6152801;28;81309;-63
2023/05/30 08:15:39;;;;;;;18.42;8.75;;;23.60;52.10;;;;;;6152508;28;82191;-63
2023/05/30 08:18:39;;;;;;;15.60;8.63;;;23.60;52.10;;;;;;6152774;28;80319;-64
2023/05/30 08:21:40;;;;;;;14.77;8.82;;;23.60;52.20;;;;;;6152247;28;80905;-65
2023/05/30 08:24:41;;;;;;;14.75;8.70;;;23.70;52.20;;;;;;6152703;28;81040;-63
2023/05/30 08:27:42;;;;;;;15.32;8.10;;;23.70;52.50;;;;;;6153211;28;80292;-56
2023/05/30 08:30:43;;;;;;;15.30;8.27;;;23.70;52.20;;;;;;6145287;28;80398;-56
2023/05/30 08:33:43;;;;;;;13.65;7.72;;;23.70;52.40;;;;;;6139354;28;81715;-58
2023/05/30 08:36:44;;;;;;;13.68;7.72;;;23.70;52.50;;;;;;6149468;28;82352;-57
2023/05/30 08:39:44;;;;;;;15.52;8.30;;;23.70;52.50;;;;;;6151724;28;80503;-56
2023/05/30 08:42:45;;;;;;;14.82;7.40;;;23.70;52.40;;;;;;6152277;28;82683;-56
2023/05/30 08:45:46;;;;;;;12.73;7.05;;;23.80;52.30;;;;;;6152382;28;80969;-63
2023/05/30 08:48:46;;;;;;;13.25;7.28;;;23.80;52.20;;;;;;6152120;28;81111;-64
2023/05/30 08:51:47;;;;;;;12.35;7.75;;;23.80;52.20;;;;;;6152697;28;80395;-64
2023/05/30 08:54:47;;;;;;;13.63;7.30;;;23.80;52.10;;;;;;6152396;28;81370;-64
2023/05/30 08:57:48;;;;;;;15.18;8.10;;;23.80;52.00;;;;;;6150586;28;80663;-63
2023/05/30 09:00:48;;;;;;;13.77;7.88;;;23.90;52.10;;;;;;6151407;28;80480;-65
2023/05/30 09:03:49;;;;;;;11.63;7.22;;;23.90;52.10;;;;;;6152501;28;82849;-64
2023/05/30 09:06:50;;;;;;;11.93;7.55;;;24.00;52.10;;;;;;6151723;28;80531;-63
2023/05/30 09:09:51;;;;;;;13.93;7.03;;;24.00;52.10;;;;;;6151865;28;80441;-63
2023/05/30 09:12:52;;;;;;;12.25;7.35;;;24.00;52.10;;;;;;6150704;28;82483;-64
2023/05/30 09:15:52;;;;;;;10.60;6.55;;;24.00;52.10;;;;;;6151433;28;81023;-63
2023/05/30 09:18:53;;;;;;;9.68;6.20;;;24.00;52.10;;;;;;6151136;28;83621;-63
2023/05/30 09:21:53;;;;;;;12.40;7.10;;;24.00;52.00;;;;;;6151408;28;80469;-69
2023/05/30 09:24:55;;;;;;;14.65;7.00;;;24.00;52.00;;;;;;6152436;28;82296;-68
2023/05/30 09:27:55;;;;;;;12.23;6.55;;;24.00;51.90;;;;;;6153125;28;80242;-71
2023/05/30 09:30:56;;;;;;;11.27;6.53;;;24.10;52.00;;;;;;6152849;28;84707;-71
2023/05/30 09:33:56;;;;;;;11.35;6.22;;;24.10;51.80;;;;;;6152043;28;80603;-71
2023/05/30 09:36:57;;;;;;;15.05;6.80;;;24.10;51.90;;;;;;6153309;28;81313;-70
2023/05/30 09:39:57;;;;;;;11.23;6.15;;;24.10;51.90;;;;;;6153258;28;80460;-59
2023/05/30 09:42:58;;;;;;;9.95;6.32;;;24.20;51.90;;;;;;6150899;28;80775;-57
2023/05/30 09:45:58;;;;;;;12.05;6.13;;;24.20;51.90;;;;;;6149692;28;80442;-59
2023/05/30 09:48:59;;;;;;;10.73;5.80;;;24.20;51.90;;;;;;6151590;28;80555;-60
2023/05/30 09:52:00;;;;;;;10.23;5.60;;;24.30;51.90;;;;;;6149799;28;82049;-58
2023/05/30 09:55:00;;;;;;;12.45;5.47;;;24.30;51.90;;;;;;6150747;28;80400;-59
2023/05/30 09:58:01;;;;;;;13.07;6.40;;;24.30;51.80;;;;;;6151245;28;81106;-58
2023/05/30 10:01:02;;;;;;;12.95;5.60;;;24.30;51.80;;;;;;6150540;28;80196;-56
2023/05/30 10:04:02;;;;;;;6.55;5.03;;;24.30;51.70;;;;;;6150969;28;80673;-56
2023/05/30 10:07:03;;;;;;;11.57;5.88;;;24.30;51.70;;;;;;6149379;28;80739;-56
2023/05/30 10:10:03;;;;;;;6.80;4.95;;;24.40;51.60;;;;;;6152984;28;80220;-56
2023/05/30 10:13:04;;;;;;;8.40;5.07;;;24.40;51.60;;;;;;6154768;28;81202;-59
2023/05/30 10:16:04;;;;;;;8.35;5.35;;;24.40;51.50;;;;;;6156173;28;81378;-59
2023/05/30 10:19:05;;;;;;;9.35;4.85;;;24.40;51.60;;;;;;6154267;28;80908;-59
2023/05/30 10:22:05;;;;;;;10.90;5.47;;;24.40;51.50;;;;;;6154828;28;80116;-58
2023/05/30 10:25:06;;;;;;;10.43;5.25;;;24.40;51.50;;;;;;6155559;28;80735;-57
2023/05/30 10:28:07;;;;;;;9.77;5.43;;;24.40;51.50;;;;;;6155050;28;80703;-58
2023/05/30 10:31:07;;;;;;;9.75;4.80;;;24.40;51.60;;;;;;6146865;28;80374;-56
2023/05/30 10:34:08;;;;;;;8.18;4.63;;;24.40;51.60;;;;;;6155124;28;80347;-57
2023/05/30 10:37:08;;;;;;;10.18;4.82;;;24.40;51.50;;;;;;6155125;28;82632;-58
2023/05/30 10:40:09;;;;;;;12.80;5.28;;;24.40;51.30;;;;;;6155975;28;80666;-58
2023/05/30 10:43:09;;;;;;;7.15;4.47;;;24.40;52.00;;;;;;6154663;28;80509;-58
2023/05/30 10:46:10;;;;;;;8.55;4.95;;;24.40;52.00;;;;;;6151370;28;81759;-58
2023/05/30 10:49:10;;;;;;;9.80;4.70;;;24.40;51.30;;;;;;6155366;28;81277;-58
2023/05/30 10:52:11;;;;;;;8.93;4.45;;;24.40;51.30;;;;;;6155457;28;80669;-58
2023/05/30 10:55:12;;;;;;;12.45;5.18;;;24.40;51.40;;;;;;6154052;28;80362;-58
2023/05/30 10:58:12;;;;;;;9.35;4.82;;;24.40;51.40;;;;;;6153635;28;80900;-58
2023/05/30 11:01:13;;;;;;;8.90;4.25;;;24.40;51.40;;;;;;6154056;28;80506;-58
2023/05/30 11:04:14;;;;;;;9.23;4.80;;;24.40;51.50;;;;;;6153068;28;81283;-60
2023/05/30 11:07:14;;;;;;;7.20;4.60;;;24.40;51.40;;;;;;6153568;28;80924;-59
2023/05/30 11:10:15;;;;;;;6.90;4.50;;;24.40;51.50;;;;;;6154218;28;80994;-58
2023/05/30 11:13:15;;;;;;;7.03;4.68;;;24.40;51.50;;;;;;6155000;28;81213;-59
2023/05/30 11:16:16;;;;;;;7.07;4.32;;;24.30;51.50;;;;;;6153899;28;81381;-59
2023/05/30 11:19:19;;;;;;;6.97;4.53;;;24.40;51.60;;;;;;6153555;28;80738;-57
2023/05/30 11:22:19;;;;;;;7.65;4.57;;;24.30;51.40;;;;;;6152452;28;80693;-58
2023/05/30 11:25:23;;;;;;;6.70;3.97;;;24.40;51.60;;;;;;6153258;28;81601;-59
2023/05/30 11:28:23;;;;;;;7.80;4.28;;;24.30;51.50;;;;;;6152268;28;80139;-57
2023/05/30 11:31:25;;;;;;;6.50;4.15;;;24.30;51.50;;;;;;6144283;28;82260;-62
2023/05/30 11:34:25;;;;;;;6.22;4.10;;;24.40;51.40;;;;;;6153792;28;80588;-62
2023/05/30 11:37:26;;;;;;;5.93;3.72;;;24.40;51.40;;;;;;6153526;28;80705;-63
2023/05/30 11:40:28;;;;;;;6.40;4.13;;;24.50;51.40;;;;;;6153547;28;80843;-62
2023/05/30 11:43:28;;;;;;;7.40;4.28;;;24.50;51.30;;;;;;6153891;28;80520;-63
2023/05/30 11:46:29;;;;;;;7.10;4.30;;;24.50;51.40;;;;;;6152458;28;80382;-66
2023/05/30 11:49:30;;;;;;;7.43;4.28;;;24.50;51.40;;;;;;6153597;28;80456;-71
2023/05/30 11:52:30;;;;;;;7.28;3.63;;;24.50;51.30;;;;;;6153193;28;81580;-72
2023/05/30 11:55:31;;;;;;;7.97;3.92;;;24.40;51.30;;;;;;6154363;28;80486;-70
2023/05/30 11:58:31;;;;;;;5.68;4.07;;;24.40;51.30;;;;;;6153142;28;80808;-70
2023/05/30 12:01:32;;;;;;;6.50;3.83;;;24.40;51.40;;;;;;6152878;28;81015;-72
2023/05/30 12:04:32;;;;;;;5.80;4.22;;;24.40;51.30;;;;;;6153168;28;80939;-71
2023/05/30 12:07:33;;;;;;;6.88;4.05;;;24.40;51.40;;;;;;6153490;28;80700;-65
2023/05/30 12:10:33;;;;;;;5.05;4.20;;;24.40;51.50;;;;;;6152701;28;80554;-65
2023/05/30 12:13:34;;;;;;;6.03;3.92;;;24.40;51.50;;;;;;6151768;28;81465;-66
2023/05/30 12:16:34;;;;;;;4.68;3.47;;;24.40;51.50;;;;;;6151899;28;80837;-67
2023/05/30 12:19:35;;;;;;;4.72;3.38;;;24.30;51.50;;;;;;6152567;28;81410;-65
2023/05/30 12:22:35;;;;;;;6.15;3.55;;;24.30;51.40;;;;;;6152555;28;87580;-65
2023/05/30 12:25:36;;;;;;;4.63;3.50;;;24.40;51.50;;;;;;6154797;28;80467;-58
2023/05/30 12:28:36;;;;;;;4.35;3.33;;;24.30;51.50;;;;;;6149348;28;80577;-57
2023/05/30 12:31:37;;;;;;;5.57;4.00;;;24.30;51.50;;;;;;6147987;28;81010;-56
2023/05/30 12:34:38;;;;;;;4.97;3.55;;;24.40;51.40;;;;;;6152577;28;81627;-58
2023/05/30 12:37:38;;;;;;;5.45;3.67;;;24.40;51.40;;;;;;6152239;28;80447;-57
2023/05/30 12:40:39;;;;;;;4.45;3.40;;;24.30;51.40;;;;;;6152104;28;80871;-58
2023/05/30 12:43:39;;;;;;;5.63;3.95;;;24.30;51.40;;;;;;6153235;28;80509;-57
2023/05/30 12:46:41;;;;;;;4.70;3.45;;;24.30;51.40;;;;;;6151412;28;81119;-57
2023/05/30 12:49:43;;;;;;;5.55;3.85;;;24.30;51.50;;;;;;6151865;28;83630;-59
2023/05/30 12:52:44;;;;;;;4.72;3.55;;;24.30;51.50;;;;;;6151556;28;81509;-60
2023/05/30 12:55:44;;;;;;;27.85;4.22;;;24.40;51.50;;;;;;6151454;28;80367;-58
2023/05/30 12:58:45;;;;;;;4.82;3.35;;;24.30;51.50;;;;;;6152366;28;80547;-58
2023/05/30 13:01:45;;;;;;;6.50;3.55;;;24.40;51.40;;;;;;6145925;28;86234;-71
2023/05/30 13:04:46;;;;;;;7.13;3.58;;;24.40;51.30;;;;;;6152571;28;81447;-69
2023/05/30 13:07:47;;;;;;;5.88;3.58;;;24.40;51.60;;;;;;6150054;28;81230;-70
2023/05/30 13:10:47;;;;;;;5.32;3.25;;;24.40;51.60;;;;;;6144394;28;80323;-69
2023/05/30 13:13:48;;;;;;;7.95;3.65;;;24.40;51.70;;;;;;6151510;28;80070;-74
2023/05/30 13:16:48;;;;;;;8.35;3.30;;;24.40;51.50;;;;;;6151630;28;81913;-75
2023/05/30 13:19:49;;;;;;;8.82;3.28;;;24.30;51.80;;;;;;6152428;28;80363;-60
2023/05/30 13:22:49;;;;;;;8.48;3.65;;;24.30;51.70;;;;;;6150839;28;80372;-58
2023/05/30 13:25:50;;;;;;;5.88;3.40;;;24.30;51.80;;;;;;6150539;28;82674;-60
2023/05/30 13:28:50;;;;;;;8.07;3.80;;;24.30;51.80;;;;;;6145666;28;87363;-60
2023/05/30 13:31:51;;;;;;;5.90;3.42;;;24.30;51.80;;;;;;6150076;28;81099;-61
2023/05/30 13:34:51;;;;;;;10.25;3.30;;;24.30;51.80;;;;;;6151910;28;80442;-61
2023/05/30 13:37:53;;;;;;;9.43;3.88;;;24.30;51.40;;;;;;6151449;28;81092;-59
2023/05/30 13:40:53;;;;;;;8.80;3.83;;;24.30;51.60;;;;;;6145279;28;80777;-68
2023/05/30 13:43:54;;;;;;;7.63;3.50;;;24.30;51.40;;;;;;6148007;28;80230;-68
2023/05/30 13:46:55;;;;;;;7.93;3.42;;;24.30;50.50;;;;;;6155858;28;80827;-68
2023/05/30 13:49:57;;;;;;;8.30;3.35;;;24.30;50.70;;;;;;6155206;28;82814;-63
2023/05/30 13:52:58;;;;;;;4.70;3.25;;;24.30;50.60;;;;;;6129389;28;82906;-69
2023/05/30 13:55:58;;;;;;;10.13;4.53;;;24.30;50.10;;;;;;6149595;28;80570;-67
2023/05/30 13:58:59;;;;;;;5.38;3.53;;;24.30;50.20;;;;;;6151812;28;80763;-59
2023/05/30 14:01:59;;;;;;;13.23;3.95;;;24.30;49.40;;;;;;6153070;28;81753;-59
2023/05/30 14:05:00;;;;;;;8.18;3.90;;;24.30;50.00;;;;;;6153777;28;81407;-58
2023/05/30 14:08:01;;;;;;;8.85;3.58;;;24.30;49.80;;;;;;6154588;28;80558;-60
2023/05/30 14:11:01;;;;;;;6.40;3.50;;;24.20;47.90;;;;;;6154605;28;81331;-59
2023/05/30 14:14:02;;;;;;;8.73;3.72;;;24.20;48.40;;;;;;6155046;28;81108;-63
2023/05/30 14:17:03;;;;;;;9.13;3.67;;;24.20;47.30;;;;;;6153754;28;82103;-57
2023/05/30 14:20:04;;;;;;;8.95;3.78;;;24.30;47.50;;;;;;6154200;28;80393;-61
2023/05/30 14:23:06;;;;;;;11.10;3.83;;;24.20;46.20;;;;;;6153246;28;80858;-60
2023/05/30 14:26:06;;;;;;;18.30;4.38;;;24.10;46.50;;;;;;6154526;28;81625;-60
2023/05/30 14:29:07;;;;;;;7.63;4.13;;;24.20;46.60;;;;;;6146619;28;80351;-59
2023/05/30 14:32:07;;;;;;;8.38;3.60;;;24.20;46.30;;;;;;6153742;28;82063;-59
2023/05/30 14:35:09;;;;;;;5.45;3.30;;;24.20;46.50;;;;;;6149971;28;81373;-59
2023/05/30 14:38:09;;;;;;;7.97;3.40;;;24.20;46.10;;;;;;6154133;28;80434;-61
2023/05/30 14:41:10;;;;;;;9.50;4.13;;;24.20;46.30;;;;;;6154540;28;80529;-62
2023/05/30 14:44:10;;;;;;;7.90;3.88;;;24.20;46.40;;;;;;6154797;28;85999;-62
2023/05/30 14:47:11;;;;;;;10.57;3.10;;;24.20;46.40;;;;;;6154522;28;81331;-62
2023/05/30 14:50:12;;;;;;;9.43;3.60;;;24.20;46.30;;;;;;6154485;28;83339;-67
2023/05/30 14:53:12;;;;;;;10.57;4.10;;;24.20;46.20;;;;;;6147332;28;81656;-61
2023/05/30 14:56:13;;;;;;;8.75;4.03;;;24.20;46.20;;;;;;6146322;28;85317;-59
2023/05/30 14:59:13;;;;;;;11.45;3.40;;;24.20;45.60;;;;;;6145872;28;81239;-59
2023/05/30 15:02:14;;;;;;;11.50;4.00;;;24.10;45.20;;;;;;6146135;28;81529;-59
2023/05/30 15:05:14;;;;;;;10.55;4.45;;;24.10;45.20;;;;;;6148640;28;80924;-60
2023/05/30 15:08:15;;;;;;;8.15;3.42;;;24.00;44.90;;;;;;6152711;28;81730;-60
2023/05/30 15:11:15;;;;;;;7.70;3.28;;;24.00;45.00;;;;;;6153400;28;84261;-60
2023/05/30 15:14:16;;;;;;;8.40;3.50;;;24.00;45.30;;;;;;6153903;28;80689;-61
2023/05/30 15:17:17;;;;;;;8.85;3.80;;;24.00;45.30;;;;;;6154117;28;80812;-60
2023/05/30 15:20:17;;;;;;;7.38;3.30;;;23.90;45.20;;;;;;6152069;28;82731;-61
2023/05/30 15:23:18;;;;;;;13.02;3.65;;;24.00;45.60;;;;;;6157452;28;80580;-61
2023/05/30 15:26:19;;;;;;;12.73;3.53;;;23.90;45.40;;;;;;6154473;28;80518;-62
2023/05/30 15:29:20;;;;;;;7.97;2.90;;;24.00;45.70;;;;;;6146634;28;80527;-68
2023/05/30 15:32:20;;;;;;;5.72;2.85;;;24.00;45.50;;;;;;6151716;28;81115;-67